Time;durP1;ratioP1;P1;durP2;ratioP2;P2;SDS_P1;SDS_P2;PMS_P1;PMS_P2;Temp;Humidity;BMP_temperature;BMP_pressure;BME280_temperature;BME280_humidity;BME280_pressure;Samples;Min_cycle;Max_cycle;Signal;HPM_P1;HPM_P2
2021/12/21 00:01:06;;;;;;;15.63;6.63;;;;;;;-0.71;nan;100925.09;5040620;28;20029;-71
2021/12/21 00:03:51;;;;;;;15.32;7.10;;;;;;;-0.66;nan;100940.19;5032414;28;20056;-71
2021/12/21 00:06:38;;;;;;;15.90;7.40;;;;;;;-0.66;nan;100951.34;5045713;28;20029;-71
2021/12/21 00:09:24;;;;;;;15.05;7.30;;;;;;;-0.67;nan;100949.72;5044863;28;20064;-71
2021/12/21 00:12:12;;;;;;;13.50;6.53;;;;;;;-0.90;nan;100917.34;5039342;28;20048;-71
2021/12/21 00:15:05;;;;;;;17.10;7.15;;;;;;;-0.74;nan;100946.06;5041252;28;20041;-71
2021/12/21 00:23:47;;;;;;;15.15;7.68;;;;;;;-0.74;nan;100965.91;5041555;28;20037;-71
2021/12/21 00:26:33;;;;;;;14.48;7.22;;;;;;;-0.82;nan;100961.44;5040844;28;20064;-71
2021/12/21 00:29:20;;;;;;;14.35;7.35;;;;;;;-0.86;nan;100960.09;5046724;28;20028;-72
2021/12/21 00:32:07;;;;;;;15.68;7.20;;;;;;;-0.85;nan;100964.28;5036363;28;20037;-72
2021/12/21 00:34:52;;;;;;;14.90;6.57;;;;;;;-0.82;nan;100965.78;5041103;28;20466;-71
2021/12/21 00:37:41;;;;;;;14.80;6.65;;;;;;;-1.02;nan;100949.47;5047568;28;20052;-74
2021/12/21 00:40:26;;;;;;;13.63;7.22;;;;;;;-0.86;nan;100978.19;5037739;28;20510;-71
2021/12/21 00:43:12;;;;;;;14.18;7.40;;;;;;;-0.91;nan;100975.16;5037995;28;20483;-72
2021/12/21 00:45:58;;;;;;;12.98;6.45;;;;;;;-0.92;nan;100979.53;5049127;28;20049;-74
2021/12/21 00:48:50;;;;;;;16.30;7.13;;;;;;;-0.98;nan;100977.50;5050560;28;20044;-74
2021/12/21 00:51:36;;;;;;;16.13;7.35;;;;;;;-1.00;nan;100976.00;5050667;28;20041;-72
2021/12/21 00:54:21;;;;;;;12.93;6.50;;;;;;;-0.93;nan;100996.00;5040261;28;20573;-74
2021/12/21 00:57:09;;;;;;;13.70;6.68;;;;;;;-0.99;nan;100986.19;5050619;28;20767;-73
2021/12/21 00:59:54;;;;;;;12.90;6.32;;;;;;;-0.95;nan;101000.50;5033238;28;20087;-72
2021/12/21 01:02:41;;;;;;;12.40;6.57;;;;;;;-0.95;nan;101007.44;5045421;28;20049;-74
2021/12/21 01:05:38;;;;;;;14.38;7.00;;;;;;;-1.01;nan;100998.44;5038888;28;20080;-74
2021/12/21 01:08:28;;;;;;;12.70;6.32;;;;;;;-1.04;nan;100998.72;5038272;28;20041;-72
2021/12/21 01:11:19;;;;;;;13.13;6.57;;;;;;;-1.06;nan;100998.03;5050931;28;20146;-74
2021/12/21 01:19:48;;;;;;;15.30;6.70;;;;;;;-1.08;nan;101016.25;5049245;28;20433;-73
2021/12/21 01:37:04;;;;;;;13.52;6.50;;;;;;;-1.24;nan;101033.22;5048462;28;20048;-74
2021/12/21 01:51:38;;;;;;;15.20;6.95;;;;;;;-1.21;nan;101041.53;5033643;28;20044;-73
2021/12/21 01:54:24;;;;;;;11.23;5.88;;;;;;;-1.16;nan;101048.88;5032805;28;20048;-73
2021/12/21 01:57:11;;;;;;;13.70;5.82;;;;;;;-1.15;nan;101059.09;5040534;28;20084;-73
2021/12/21 01:59:56;;;;;;;13.80;6.40;;;;;;;-1.21;nan;101046.69;5040616;28;20034;-73
2021/12/21 02:02:42;;;;;;;13.68;6.18;;;;;;;-1.14;nan;101065.88;5048959;28;20380;-73
2021/12/21 02:05:29;;;;;;;15.57;6.35;;;;;;;-1.14;nan;101065.88;5034057;28;20041;-74
2021/12/21 02:08:15;;;;;;;12.48;6.28;;;;;;;-1.16;nan;101061.81;5036288;28;20041;-73
2021/12/21 02:11:04;;;;;;;12.38;6.28;;;;;;;-1.20;nan;101060.41;5035386;28;20102;-73
2021/12/21 02:13:51;;;;;;;10.85;5.88;;;;;;;-1.24;nan;101062.47;5037171;28;20115;-73
2021/12/21 02:22:18;;;;;;;14.05;6.60;;;;;;;-1.43;nan;101049.50;5045771;28;20033;-73
2021/12/21 02:25:34;;;;;;;14.20;6.40;;;;;;;-1.37;nan;101069.63;5038854;28;20037;-74
2021/12/21 02:31:01;;;;;;;13.40;6.18;;;;;;;-1.34;nan;101071.94;5039271;28;20390;-74
2021/12/21 02:33:48;;;;;;;14.57;6.93;;;;;;;-1.42;nan;101072.59;5049532;28;20042;-74
2021/12/21 02:36:34;;;;;;;13.38;6.82;;;;;;;-1.39;nan;101084.41;5048052;28;20402;-73
2021/12/21 02:39:21;;;;;;;14.07;6.97;;;;;;;-1.37;nan;101082.53;5038389;28;20116;-73
2021/12/21 02:42:07;;;;;;;12.68;6.55;;;;;;;-1.50;nan;101070.66;5041903;28;20499;-73
2021/12/21 02:44:55;;;;;;;15.52;7.18;;;;;;;-1.51;nan;101081.09;5036662;28;20049;-72
2021/12/21 02:47:41;;;;;;;13.85;6.68;;;;;;;-1.51;nan;101081.09;5034886;28;20033;-73
2021/12/21 02:50:27;;;;;;;14.25;7.00;;;;;;;-1.50;nan;101081.00;5043891;28;20033;-72
2021/12/21 02:53:13;;;;;;;15.00;7.30;;;;;;;-1.46;nan;101091.91;5050538;28;20040;-73
2021/12/21 02:55:58;;;;;;;13.93;6.80;;;;;;;-1.54;nan;101087.34;5049456;28;20041;-73
2021/12/21 02:58:44;;;;;;;13.13;6.82;;;;;;;-1.48;nan;101100.69;5045611;28;20568;-73
2021/12/21 03:01:30;;;;;;;14.85;7.30;;;;;;;-1.55;nan;101092.66;5041408;28;20037;-71
2021/12/21 03:04:16;;;;;;;13.43;6.80;;;;;;;-1.52;nan;101108.72;5043809;28;20136;-71
2021/12/21 03:10:02;;;;;;;13.82;7.05;;;;;;;-1.64;nan;101089.06;5039078;28;20029;-71
2021/12/21 03:15:52;;;;;;;15.70;7.35;;;;;;;-1.63;nan;101105.38;5051117;28;20033;-72
2021/12/21 03:18:37;;;;;;;15.57;6.93;;;;;;;-1.61;nan;101109.47;5041176;28;20052;-72
2021/12/21 03:21:23;;;;;;;14.43;6.80;;;;;;;-1.58;nan;101122.16;5035607;28;20033;-72
2021/12/21 03:24:09;;;;;;;20.30;7.10;;;;;;;-1.62;nan;101117.38;5051338;28;20044;-72
2021/12/21 03:26:55;;;;;;;14.50;6.90;;;;;;;-1.59;nan;101127.44;5049236;28;20036;-72
2021/12/21 03:29:41;;;;;;;15.10;6.82;;;;;;;-1.59;nan;101130.81;5041359;28;20131;-72
2021/12/21 03:32:27;;;;;;;13.77;7.07;;;;;;;-1.62;nan;101128.50;5049718;28;20518;-71
2021/12/21 03:35:13;;;;;;;14.85;6.30;;;;;;;-1.64;nan;101130.41;5044747;28;20041;-72
2021/12/21 03:37:59;;;;;;;17.40;7.78;;;;;;;-1.66;nan;101128.88;5053438;28;20036;-72
2021/12/21 03:40:45;;;;;;;14.55;7.10;;;;;;;-1.68;nan;101143.69;5036600;28;20045;-71
2021/12/21 03:43:32;;;;;;;15.65;7.50;;;;;;;-1.69;nan;101142.88;5038084;28;20045;-72
2021/12/21 03:46:17;;;;;;;13.45;6.80;;;;;;;-1.69;nan;101135.13;5042982;28;20402;-72
2021/12/21 03:49:26;;;;;;;18.10;6.95;;;;;;;-1.74;nan;101135.50;5049381;28;20049;-72
2021/12/21 03:52:16;;;;;;;13.90;7.22;;;;;;;-1.69;nan;101153.19;5040102;28;20033;-72
2021/12/21 03:55:03;;;;;;;14.32;6.93;;;;;;;-1.81;nan;101139.53;5042334;28;20060;-72
2021/12/21 03:57:49;;;;;;;15.88;6.82;;;;;;;-1.89;nan;101123.03;5045098;28;20036;-71
2021/12/21 04:00:35;;;;;;;16.35;6.80;;;;;;;-1.75;nan;101149.38;5047766;28;20044;-72
2021/12/21 04:03:21;;;;;;;15.68;7.20;;;;;;;-1.74;nan;101145.00;5040060;28;20056;-72
2021/12/21 04:06:07;;;;;;;14.55;6.88;;;;;;;-1.80;nan;101148.09;5039544;28;20391;-72
2021/12/21 04:08:52;;;;;;;14.77;6.90;;;;;;;-1.73;nan;101168.09;5038241;28;20575;-71
2021/12/21 04:11:38;;;;;;;20.10;7.75;;;;;;;-1.76;nan;101175.31;5044511;28;20127;-72
2021/12/21 04:14:24;;;;;;;17.95;7.45;;;;;;;-1.81;nan;101167.13;5044183;28;20039;-72
2021/12/21 04:17:17;;;;;;;14.82;7.10;;;;;;;-1.76;nan;101177.88;5037445;28;20471;-71
2021/12/21 04:20:03;;;;;;;17.48;7.25;;;;;;;-1.97;nan;101168.34;5041830;28;20041;-72
2021/12/21 04:22:49;;;;;;;12.55;6.55;;;;;;;-1.70;nan;101187.69;5036873;28;20814;-71
2021/12/21 04:25:35;;;;;;;13.95;7.20;;;;;;;-1.73;nan;101193.13;5034060;28;20132;-71
2021/12/21 04:28:21;;;;;;;15.60;7.38;;;;;;;-1.74;nan;101192.31;5034420;28;20106;-71
2021/12/21 04:31:09;;;;;;;16.27;7.07;;;;;;;-1.65;nan;101197.66;5039722;28;20036;-71
2021/12/21 04:33:54;;;;;;;20.55;6.93;;;;;;;-1.65;nan;101206.25;5038982;28;20041;-71
2021/12/21 04:36:42;;;;;;;14.23;6.68;;;;;;;-1.65;nan;101206.25;5043754;28;20079;-72
2021/12/21 04:39:43;;;;;;;14.45;6.88;;;;;;;-1.71;nan;101204.13;5050657;28;20403;-71
2021/12/21 04:42:29;;;;;;;12.73;6.63;;;;;;;-1.66;nan;101214.91;5041903;28;20041;-71
2021/12/21 04:45:15;;;;;;;14.07;7.45;;;;;;;-1.74;nan;101200.06;5041417;28;20037;-71
2021/12/21 04:48:01;;;;;;;18.35;7.72;;;;;;;-1.85;nan;101184.59;5034198;28;20037;-72
2021/12/21 04:50:47;;;;;;;17.65;8.73;;;;;;;-1.75;nan;101210.50;5046031;28;20045;-71
2021/12/21 04:53:33;;;;;;;16.40;8.00;;;;;;;-1.71;nan;101222.22;5039152;28;20557;-71
2021/12/21 04:56:19;;;;;;;18.38;7.70;;;;;;;-1.70;nan;101213.50;5040569;28;20041;-72
2021/12/21 04:59:04;;;;;;;14.35;7.53;;;;;;;-1.65;nan;101233.78;5051931;28;20037;-71
2021/12/21 05:01:52;;;;;;;14.25;7.72;;;;;;;-1.75;nan;101220.81;5049979;28;20036;-72
2021/12/21 05:04:39;;;;;;;16.48;7.30;;;;;;;-1.64;nan;101240.63;5047585;28;20092;-71
2021/12/21 05:07:27;;;;;;;17.65;7.75;;;;;;;-1.62;nan;101236.16;5043757;28;20042;-71
2021/12/21 05:10:13;;;;;;;14.57;6.53;;;;;;;-1.74;nan;101225.88;5048173;28;20033;-72
2021/12/21 05:12:59;;;;;;;16.73;7.97;;;;;;;-1.69;nan;101245.34;5038330;28;20533;-73
2021/12/21 05:15:45;;;;;;;18.58;8.30;;;;;;;-1.68;nan;101250.38;5046889;28;20068;-73
2021/12/21 05:18:35;;;;;;;22.95;8.50;;;;;;;-1.66;nan;101258.81;5041557;28;20025;-73
2021/12/21 05:21:20;;;;;;;16.55;7.60;;;;;;;-1.64;nan;101264.69;5049654;28;20409;-74
2021/12/21 05:24:06;;;;;;;18.30;8.32;;;;;;;-1.60;nan;101268.66;5051695;28;20403;-74
2021/12/21 05:26:52;;;;;;;17.88;8.15;;;;;;;-1.66;nan;101258.00;5049370;28;20097;-74
2021/12/21 05:29:38;;;;;;;15.85;7.70;;;;;;;-1.73;nan;101257.66;5032766;28;20041;-74
2021/12/21 05:32:24;;;;;;;17.42;7.82;;;;;;;-1.63;nan;101286.16;5037399;28;20443;-73
2021/12/21 05:35:10;;;;;;;16.08;7.80;;;;;;;-1.65;nan;101281.13;5035173;28;20076;-73
2021/12/21 05:38:00;;;;;;;19.27;8.52;;;;;;;-1.61;nan;101299.75;5037047;28;20499;-73
2021/12/21 05:40:47;;;;;;;22.85;8.75;;;;;;;-1.60;nan;101294.47;5034566;28;20075;-73
2021/12/21 05:43:33;;;;;;;21.40;8.95;;;;;;;-1.60;nan;101306.59;5035189;28;20038;-73
2021/12/21 05:46:19;;;;;;;17.30;8.43;;;;;;;-1.59;nan;101313.38;5036329;28;20033;-73
2021/12/21 05:49:04;;;;;;;15.32;7.28;;;;;;;-1.65;nan;101308.69;5033386;28;20037;-73
2021/12/21 05:51:50;;;;;;;22.30;8.50;;;;;;;-1.68;nan;101312.34;5038548;28;20079;-73
2021/12/21 05:54:36;;;;;;;18.05;8.07;;;;;;;-1.64;nan;101311.16;5034738;28;20484;-73
2021/12/21 05:57:22;;;;;;;20.60;9.15;;;;;;;-1.69;nan;101313.28;5036006;28;20162;-75
2021/12/21 06:00:14;;;;;;;20.75;8.93;;;;;;;-1.64;nan;101326.66;5040037;28;20610;-72
2021/12/21 06:03:01;;;;;;;21.05;9.65;;;;;;;-1.67;nan;101320.94;5039626;28;20053;-72
2021/12/21 06:05:47;;;;;;;22.70;9.85;;;;;;;-1.67;nan;101320.94;5034019;28;20064;-71
2021/12/21 06:08:33;;;;;;;21.38;9.98;;;;;;;-1.61;nan;101335.91;5036665;28;20094;-72
2021/12/21 06:11:20;;;;;;;17.88;8.75;;;;;;;-1.61;nan;101343.66;5022503;28;20048;-71
2021/12/21 06:25:59;;;;;;;34.40;13.07;;;;;;;-1.61;nan;101356.56;5042043;28;20029;-72
2021/12/21 06:28:46;;;;;;;37.85;13.82;;;;;;;-1.61;nan;101362.56;5042395;28;20104;-74
2021/12/21 06:31:32;;;;;;;36.15;14.48;;;;;;;-1.66;nan;101356.94;5045094;28;20041;-73
2021/12/21 06:34:19;;;;;;;36.33;12.60;;;;;;;-1.60;nan;101379.72;5055766;28;20033;-72
2021/12/21 06:37:05;;;;;;;21.27;9.90;;;;;;;-1.60;nan;101394.38;5041198;28;20112;-72
2021/12/21 06:39:51;;;;;;;17.70;8.18;;;;;;;-1.67;nan;101385.47;5042992;28;20502;-71
2021/12/21 06:42:38;;;;;;;25.30;8.68;;;;;;;-1.60;nan;101396.97;5039156;28;20045;-71
2021/12/21 06:45:44;;;;;;;19.95;7.43;;;;;;;-1.62;nan;101393.69;5041013;28;20443;-71
2021/12/21 06:51:54;;;;;;;36.65;11.73;;;;;;;-1.66;nan;101411.16;5038718;28;20033;-71
2021/12/21 06:54:40;;;;;;;28.23;10.20;;;;;;;-1.65;nan;101409.41;5042958;28;20402;-71
2021/12/21 06:57:26;;;;;;;32.08;11.57;;;;;;;-1.61;nan;101419.38;5042912;28;20033;-70
2021/12/21 07:00:16;;;;;;;39.33;13.93;;;;;;;-1.62;nan;101428.06;5045521;28;20083;-71
2021/12/21 07:03:02;;;;;;;37.95;13.60;;;;;;;-1.66;nan;101431.81;5041807;28;20160;-70
2021/12/21 07:05:49;;;;;;;38.80;14.57;;;;;;;-1.66;nan;101442.16;5060885;28;20033;-71
2021/12/21 07:08:46;;;;;;;38.83;13.00;;;;;;;-1.66;nan;101441.34;5040646;28;20499;-70
2021/12/21 07:20:29;;;;;;;29.08;11.07;;;;;;;-1.67;nan;101453.44;5040064;28;20065;-71
2021/12/21 07:23:15;;;;;;;27.92;10.15;;;;;;;-1.65;nan;101456.72;5039681;28;20403;-71
2021/12/21 07:26:00;;;;;;;27.50;9.80;;;;;;;-1.73;nan;101444.38;5036849;28;20048;-71
2021/12/21 07:28:46;;;;;;;33.67;11.15;;;;;;;-1.59;nan;101463.97;5052505;28;20080;-71
2021/12/21 07:31:32;;;;;;;41.15;12.00;;;;;;;-1.67;nan;101453.44;5041851;28;20082;-69
2021/12/21 07:34:18;;;;;;;33.45;12.00;;;;;;;-1.64;nan;101476.44;5051874;28;20037;-69
2021/12/21 07:37:06;;;;;;;20.88;8.85;;;;;;;-1.68;nan;101450.97;5040759;28;20047;-69
2021/12/21 07:39:53;;;;;;;21.92;9.48;;;;;;;-1.64;nan;101455.78;5043635;28;20041;-70
2021/12/21 07:42:39;;;;;;;30.52;10.73;;;;;;;-1.67;nan;101462.94;5040983;28;20040;-71
2021/12/21 07:45:25;;;;;;;43.28;13.25;;;;;;;-1.88;nan;101427.50;5039878;28;20056;-71
2021/12/21 07:48:11;;;;;;;30.20;10.23;;;;;;;-1.61;nan;101459.88;5050561;28;20124;-71
2021/12/21 07:50:56;;;;;;;25.92;8.65;;;;;;;;;;5045069;28;20030;-71
2021/12/21 07:53:43;;;;;;;22.75;8.50;;;;;;;-1.65;nan;101461.03;5048873;28;20041;-72
2021/12/21 07:56:30;;;;;;;17.48;6.25;;;;;;;-1.69;nan;101437.22;5037034;28;20029;-71
2021/12/21 07:59:16;;;;;;;14.73;6.35;;;;;;;-1.57;nan;101454.34;5036062;28;20078;-71
2021/12/21 08:02:03;;;;;;;16.75;6.88;;;;;;;-1.57;nan;101456.94;5037404;28;20049;-72
2021/12/21 08:04:49;;;;;;;20.88;7.80;;;;;;;-1.51;nan;101465.97;5037950;28;20041;-71
2021/12/21 08:07:44;;;;;;;20.42;7.25;;;;;;;-1.60;nan;101446.03;5037702;28;20040;-71
2021/12/21 08:10:41;;;;;;;23.50;7.60;;;;;;;-1.47;nan;101466.56;5037732;28;20037;-71
2021/12/21 08:13:27;;;;;;;17.05;6.60;;;;;;;-1.48;nan;101467.47;5034406;28;20073;-71
2021/12/21 08:16:13;;;;;;;14.65;5.60;;;;;;;-1.38;nan;101478.75;5040409;28;20530;-71
2021/12/21 08:18:59;;;;;;;14.25;4.95;;;;;;;-1.41;nan;101473.81;5035690;28;20065;-71
2021/12/21 08:21:45;;;;;;;15.43;5.47;;;;;;;-1.45;nan;101475.81;5038586;28;20081;-71
2021/12/21 08:24:33;;;;;;;12.50;5.30;;;;;;;-1.33;nan;101498.13;5050451;28;20033;-72
2021/12/21 08:27:18;;;;;;;18.40;5.90;;;;;;;-1.35;nan;101486.25;5043155;28;20041;-71
2021/12/21 08:30:05;;;;;;;9.75;4.18;;;;;;;-1.27;nan;101508.91;5049105;28;20115;-71
2021/12/21 08:32:51;;;;;;;12.55;4.70;;;;;;;-1.26;nan;101508.81;5039116;28;20098;-71
2021/12/21 08:35:36;;;;;;;8.35;3.35;;;;;;;-1.36;nan;101490.63;5031905;28;20033;-71
2021/12/21 08:38:22;;;;;;;6.80;2.70;;;;;;;-1.23;nan;101524.06;5044043;28;20391;-71
2021/12/21 08:41:08;;;;;;;10.02;3.88;;;;;;;-1.18;nan;101532.25;5045123;28;20048;-71
2021/12/21 08:43:54;;;;;;;8.40;3.08;;;;;;;-1.20;nan;101520.41;5037977;28;20450;-71
2021/12/21 08:46:40;;;;;;;9.20;3.15;;;;;;;-1.13;nan;101518.97;5039495;28;20064;-71
2021/12/21 08:49:26;;;;;;;8.30;3.08;;;;;;;-1.06;nan;101538.25;5042881;28;20523;-71
2021/12/21 08:52:12;;;;;;;12.02;3.70;;;;;;;-1.06;nan;101522.72;5032483;28;20116;-71
2021/12/21 08:54:58;;;;;;;11.63;3.97;;;;;;;-0.95;nan;101527.88;5034630;28;20033;-71
2021/12/21 08:57:44;;;;;;;9.52;4.00;;;;;;;-0.90;nan;101527.50;5041744;28;20490;-71
2021/12/21 09:00:29;;;;;;;7.82;3.55;;;;;;;-0.87;nan;101529.84;5041317;28;20036;-71
2021/12/21 09:03:16;;;;;;;7.70;3.60;;;;;;;-0.90;nan;101520.56;5043651;28;20124;-72
2021/12/21 09:06:02;;;;;;;8.65;3.63;;;;;;;-0.84;nan;101545.09;5036780;28;20046;-73
2021/12/21 09:08:48;;;;;;;9.07;3.97;;;;;;;-0.78;nan;101530.88;5047580;28;20111;-73
2021/12/21 09:11:35;;;;;;;6.45;3.17;;;;;;;-0.66;nan;101537.66;5038972;28;20464;-73
2021/12/21 09:14:21;;;;;;;7.28;3.58;;;;;;;-0.67;nan;101536.00;5035378;28;20037;-73
2021/12/21 09:17:07;;;;;;;11.30;3.75;;;;;;;-0.58;nan;101540.44;5040981;28;20498;-73
2021/12/21 09:19:53;;;;;;;10.98;3.45;;;;;;;-0.61;nan;101548.47;5044215;28;20041;-73
2021/12/21 09:22:39;;;;;;;9.38;3.88;;;;;;;-0.56;nan;101545.50;5051339;28;20028;-74
2021/12/21 09:25:26;;;;;;;8.32;3.63;;;;;;;-0.50;nan;101553.59;5043739;28;20037;-73
2021/12/21 09:28:11;;;;;;;13.80;3.70;;;;;;;-0.50;nan;101545.03;5051440;28;20033;-73
2021/12/21 09:30:57;;;;;;;11.52;3.95;;;;;;;-0.49;nan;101520.78;5046396;28;20030;-73
2021/12/21 09:33:43;;;;;;;9.02;3.30;;;;;;;-0.34;nan;101535.03;5041687;28;20115;-73
2021/12/21 09:36:29;;;;;;;7.00;3.67;;;;;;;-0.45;nan;101535.94;5043015;28;20076;-74
2021/12/21 09:39:15;;;;;;;6.28;3.20;;;;;;;-0.43;nan;101546.97;5043001;28;20067;-72
2021/12/21 09:42:01;;;;;;;6.43;3.13;;;;;;;-0.49;nan;101541.47;5044163;28;20503;-73
2021/12/21 09:44:48;;;;;;;10.90;3.22;;;;;;;-0.45;nan;101554.03;5037210;28;20072;-74
2021/12/21 09:47:34;;;;;;;11.02;3.20;;;;;;;-0.75;nan;101515.13;5051294;28;20434;-73
2021/12/21 09:50:22;;;;;;;9.63;3.80;;;;;;;-0.56;nan;101556.66;5049298;28;20163;-73
2021/12/21 09:53:08;;;;;;;9.02;4.18;;;;;;;-0.62;nan;101538.22;5038503;28;20037;-74
2021/12/21 09:55:53;;;;;;;8.90;3.67;;;;;;;-0.62;nan;101535.63;5037939;28;20038;-73
2021/12/21 09:58:39;;;;;;;10.05;4.35;;;;;;;-0.60;nan;101531.16;5044062;28;20107;-73
2021/12/21 10:01:25;;;;;;;7.28;3.30;;;;;;;-0.47;nan;101548.16;5039775;28;20033;-73
2021/12/21 10:04:11;;;;;;;12.23;4.38;;;;;;;-0.48;nan;101543.09;5034193;28;20041;-73
2021/12/21 10:07:00;;;;;;;7.13;3.33;;;;;;;-0.38;nan;101549.19;5040642;28;20048;-73
2021/12/21 10:09:47;;;;;;;11.48;3.97;;;;;;;-0.39;nan;101534.59;5039462;28;20498;-73
2021/12/21 10:12:36;;;;;;;7.10;3.10;;;;;;;-0.29;nan;101551.03;5040860;28;20033;-73
2021/12/21 10:15:24;;;;;;;13.02;5.28;;;;;;;-0.16;nan;101545.66;5041099;28;20090;-73
2021/12/21 10:18:10;;;;;;;12.48;4.00;;;;;;;-0.11;nan;101530.56;5032743;28;20041;-73
2021/12/21 10:21:05;;;;;;;8.15;3.53;;;;;;;-0.04;nan;101536.06;5045800;28;20037;-74
2021/12/21 10:23:51;;;;;;;8.07;3.30;;;;;;;-0.03;nan;101519.56;5047029;28;20041;-73
2021/12/21 10:26:37;;;;;;;7.85;3.35;;;;;;;0.04;nan;101504.34;5037577;28;20534;-73
2021/12/21 10:29:22;;;;;;;9.00;3.80;;;;;;;0.23;nan;101522.56;5044920;28;20124;-73
2021/12/21 10:32:20;;;;;;;9.82;3.80;;;;;;;0.31;nan;101533.13;5039315;28;21309;-75
2021/12/21 10:35:09;;;;;;;8.52;3.83;;;;;;;0.20;nan;101507.28;5040684;28;20033;-73
2021/12/21 10:37:54;;;;;;;13.23;4.18;;;;;;;0.35;nan;101526.69;5032984;28;20083;-74
2021/12/21 10:40:40;;;;;;;16.27;3.90;;;;;;;0.36;nan;101530.94;5045550;28;20033;-74
2021/12/21 10:43:28;;;;;;;11.88;4.30;;;;;;;0.26;nan;101526.66;5046285;28;20534;-73
2021/12/21 10:46:13;;;;;;;10.10;3.35;;;;;;;0.19;nan;101529.78;5035556;28;20064;-74
2021/12/21 10:49:21;;;;;;;8.43;3.95;;;;;;;0.04;nan;101515.50;5043884;28;20041;-74
2021/12/21 10:52:10;;;;;;;6.78;3.55;;;;;;;0.08;nan;101526.47;5040104;28;20124;-74
2021/12/21 10:54:56;;;;;;;9.38;3.33;;;;;;;0.06;nan;101528.34;5038305;28;20044;-74
2021/12/21 10:57:42;;;;;;;6.78;2.97;;;;;;;0.10;nan;101519.38;5046783;28;20025;-74
2021/12/21 11:00:27;;;;;;;10.98;4.03;;;;;;;0.13;nan;101521.72;5043015;28;20423;-74
2021/12/21 11:03:17;;;;;;;10.32;4.22;;;;;;;0.19;nan;101513.41;5043753;28;20057;-78
2021/12/21 11:06:18;;;;;;;9.23;3.55;;;;;;;0.15;nan;101509.44;5059428;28;20041;-78
2021/12/21 11:09:04;;;;;;;5.55;2.88;;;;;;;0.21;nan;101508.91;5047496;28;20037;-77
2021/12/21 11:11:55;;;;;;;7.55;3.40;;;;;;;0.24;nan;101513.88;5063065;28;20084;-78
2021/12/21 11:14:41;;;;;;;12.85;4.32;;;;;;;0.03;nan;101497.53;5054397;28;20045;-77
2021/12/21 11:17:27;;;;;;;9.68;4.00;;;;;;;0.21;nan;101508.91;5041889;28;20044;-76
2021/12/21 11:20:15;;;;;;;7.97;3.83;;;;;;;0.33;nan;101517.41;5042183;28;20091;-76
2021/12/21 11:23:02;;;;;;;8.52;3.17;;;;;;;0.34;nan;101514.72;5034810;28;20107;-76
2021/12/21 11:25:53;;;;;;;6.32;2.92;;;;;;;0.30;nan;101509.91;5037544;28;20065;-76
2021/12/21 11:28:39;;;;;;;5.70;2.60;;;;;;;0.34;nan;101516.50;5036376;28;20120;-75
2021/12/21 11:31:25;;;;;;;4.75;2.63;;;;;;;0.33;nan;101500.09;5037679;28;20071;-74
2021/12/21 11:34:15;;;;;;;6.97;3.17;;;;;;;0.51;nan;101512.47;5039363;28;20454;-76
2021/12/21 11:40:08;;;;;;;7.60;4.00;;;;;;;0.56;nan;101503.31;5037725;28;20372;-74
2021/12/21 11:43:20;;;;;;;9.73;3.50;;;;;;;0.54;nan;101510.41;5040350;28;20123;-76
2021/12/21 11:46:11;;;;;;;10.13;3.90;;;;;;;0.51;nan;101505.50;5048144;28;20028;-76
2021/12/21 11:49:36;;;;;;;10.38;4.07;;;;;;;0.54;nan;101512.19;5048523;28;20111;-77
2021/12/21 11:52:28;;;;;;;8.32;3.58;;;;;;;0.64;nan;101506.06;5059710;28;20037;-77
2021/12/21 11:55:15;;;;;;;11.30;4.35;;;;;;;0.72;nan;101492.47;5049046;28;20728;-77
2021/12/21 11:58:21;;;;;;;7.65;3.42;;;;;;;0.69;nan;101491.91;5048840;28;20112;-77
2021/12/21 12:01:15;;;;;;;16.73;5.82;;;;;;;0.74;nan;101492.31;5038397;28;20535;-76
2021/12/21 12:04:09;;;;;;;9.18;3.58;;;;;;;0.73;nan;101495.88;5045637;28;20033;-76
2021/12/21 12:06:57;;;;;;;6.35;3.35;;;;;;;0.72;nan;101495.06;5042689;28;20466;-76
2021/12/21 12:09:43;;;;;;;10.32;3.72;;;;;;;0.62;nan;101489.84;5043910;28;20045;-75
2021/12/21 12:12:29;;;;;;;7.65;3.38;;;;;;;0.41;nan;101456.25;5038912;28;20091;-75
2021/12/21 12:15:17;;;;;;;9.77;3.90;;;;;;;0.84;nan;101506.94;5033229;28;20152;-75
2021/12/21 12:18:04;;;;;;;7.53;3.67;;;;;;;0.74;nan;101490.56;5045574;28;20398;-75
2021/12/21 12:20:50;;;;;;;10.77;4.10;;;;;;;0.85;nan;101505.16;5041485;28;20037;-75
2021/12/21 12:24:04;;;;;;;22.02;13.18;;;;;;;0.92;nan;101505.47;5046032;28;20491;-76
2021/12/21 12:26:59;;;;;;;24.10;14.38;;;;;;;0.96;nan;101496.44;5041419;28;20040;-75
2021/12/21 12:29:51;;;;;;;11.23;6.65;;;;;;;1.08;nan;101507.50;5036433;28;20037;-76
2021/12/21 12:32:43;;;;;;;11.52;6.25;;;;;;;1.16;nan;101505.06;5037905;28;20033;-75
2021/12/21 12:35:32;;;;;;;10.70;4.82;;;;;;;1.13;nan;101497.56;5038930;28;20040;-75
2021/12/21 12:38:21;;;;;;;9.35;4.20;;;;;;;1.15;nan;101501.66;5041706;28;20040;-76
2021/12/21 12:41:12;;;;;;;9.32;4.68;;;;;;;1.20;nan;101502.06;5034872;28;20645;-74
2021/12/21 12:43:58;;;;;;;11.23;4.80;;;;;;;1.19;nan;101499.59;5048865;28;20094;-75
2021/12/21 12:46:55;;;;;;;19.42;6.22;;;;;;;1.20;nan;101498.66;5033894;28;20372;-76
2021/12/21 12:49:54;;;;;;;24.02;8.27;;;;;;;1.05;nan;101483.50;5038196;28;20032;-74
2021/12/21 12:52:57;;;;;;;13.40;6.88;;;;;;;1.24;nan;101500.81;5045155;28;20061;-75
2021/12/21 12:55:57;;;;;;;12.90;6.45;;;;;;;1.22;nan;101492.38;5035176;28;20043;-74
2021/12/21 12:58:59;;;;;;;13.60;5.32;;;;;;;1.20;nan;101489.09;5041389;28;20038;-77
2021/12/21 13:01:47;;;;;;;12.88;6.82;;;;;;;1.31;nan;101505.47;5040232;28;20036;-77
2021/12/21 13:04:37;;;;;;;16.90;5.80;;;;;;;1.47;nan;101516.13;5051792;28;20040;-77
2021/12/21 13:07:27;;;;;;;9.82;5.10;;;;;;;1.49;nan;101507.25;5050892;28;20029;-77
2021/12/21 13:10:12;;;;;;;10.38;5.20;;;;;;;1.47;nan;101506.56;5045544;28;20526;-77
2021/12/21 13:12:58;;;;;;;8.35;4.07;;;;;;;1.46;nan;101504.09;5034958;28;20408;-76
2021/12/21 13:15:50;;;;;;;9.23;4.25;;;;;;;1.51;nan;101508.88;5034825;28;20048;-76
2021/12/21 13:18:48;;;;;;;10.18;3.90;;;;;;;1.56;nan;101520.50;5036007;28;20037;-76
2021/12/21 13:21:40;;;;;;;10.65;6.03;;;;;;;1.62;nan;101516.53;5034805;28;20391;-74
2021/12/21 13:24:36;;;;;;;12.60;6.53;;;;;;;1.63;nan;101505.19;5036816;28;20040;-75
2021/12/21 13:27:24;;;;;;;7.32;4.28;;;;;;;1.59;nan;101496.84;5037888;28;20123;-74
2021/12/21 13:30:09;;;;;;;9.57;4.70;;;;;;;1.80;nan;101514.06;5045051;28;20037;-75
2021/12/21 13:33:00;;;;;;;10.90;4.70;;;;;;;1.92;nan;101520.72;5038807;28;20041;-74
2021/12/21 13:35:46;;;;;;;9.18;4.60;;;;;;;1.88;nan;101508.97;5035465;28;20047;-79
2021/12/21 13:38:31;;;;;;;9.65;4.63;;;;;;;1.96;nan;101513.44;5040648;28;20375;-79
2021/12/21 13:41:17;;;;;;;12.80;5.78;;;;;;;1.91;nan;101509.47;5042239;28;20033;-79
2021/12/21 13:44:03;;;;;;;11.77;5.82;;;;;;;1.97;nan;101520.31;5046360;28;20128;-78
2021/12/21 13:46:49;;;;;;;11.07;5.00;;;;;;;1.89;nan;101502.78;5039335;28;20446;-78
2021/12/21 13:49:35;;;;;;;17.13;9.00;;;;;;;1.97;nan;101517.69;5046160;28;20174;-79
2021/12/21 13:52:22;;;;;;;10.57;4.50;;;;;;;1.81;nan;101521.69;5049410;28;20045;-79
2021/12/21 13:55:30;;;;;;;8.18;3.92;;;;;;;1.61;nan;101514.91;5040401;28;20041;-79
2021/12/21 13:58:17;;;;;;;10.98;4.40;;;;;;;1.52;nan;101521.72;5043233;28;20057;-78
2021/12/21 14:01:03;;;;;;;15.20;4.90;;;;;;;1.65;nan;101516.25;5038172;28;20025;-79
2021/12/21 14:03:54;;;;;;;8.57;3.90;;;;;;;1.70;nan;101521.84;5035368;28;20049;-78
2021/12/21 14:06:40;;;;;;;8.90;3.90;;;;;;;1.62;nan;101512.16;5035956;28;20487;-78
2021/12/21 14:09:26;;;;;;;7.55;4.38;;;;;;;1.44;nan;101517.22;5037653;28;20034;-78
2021/12/21 14:12:13;;;;;;;10.57;4.03;;;;;;;1.55;nan;101523.22;5036626;28;20510;-78
2021/12/21 14:14:59;;;;;;;9.10;4.20;;;;;;;1.51;nan;101509.72;5040100;28;20041;-78
2021/12/21 14:17:45;;;;;;;9.63;4.65;;;;;;;1.67;nan;101517.72;5043982;28;20042;-78
2021/12/21 14:20:31;;;;;;;7.43;3.47;;;;;;;1.75;nan;101513.63;5045714;28;20037;-78
2021/12/21 14:23:18;;;;;;;5.13;3.10;;;;;;;1.87;nan;101515.94;5046033;28;20043;-79
2021/12/21 14:26:34;;;;;;;6.03;3.28;;;;;;;1.90;nan;101505.25;5055949;28;20091;-77
2021/12/21 14:29:23;;;;;;;10.02;3.80;;;;;;;1.95;nan;101506.63;5055877;28;20112;-78
2021/12/21 14:34:56;;;;;;;7.97;3.97;;;;;;;2.10;nan;101520.78;5039646;28;20049;-77
2021/12/21 14:37:42;;;;;;;11.05;4.57;;;;;;;1.99;nan;101506.22;5044730;28;20036;-73
2021/12/21 14:40:28;;;;;;;11.93;4.78;;;;;;;2.02;nan;101523.28;5053317;28;20552;-76